sensor_id;sensor_type;location;lat;lon;timestamp;pressure;altitude;pressure_sealevel;temperature;humidity
11676;BME280;5894;42.768;23.404;2023-04-15T00:02:27;94884.84;;;7.16;100.00
11676;BME280;5894;42.768;23.404;2023-04-15T00:04:54;94882.38;;;7.20;100.00
11676;BME280;5894;42.768;23.404;2023-04-15T00:07:20;94882.81;;;7.35;100.00
11676;BME280;5894;42.768;23.404;2023-04-15T00:09:47;94880.06;;;7.41;100.00
11676;BME280;5894;42.768;23.404;2023-04-15T00:12:14;94891.00;;;7.34;100.00
11676;BME280;5894;42.768;23.404;2023-04-15T00:14:40;94898.72;;;7.39;100.00
11676;BME280;5894;42.768;23.404;2023-04-15T00:17:07;94910.66;;;7.45;100.00
11676;BME280;5894;42.768;23.404;2023-04-15T00:19:36;94907.34;;;7.53;100.00
11676;BME280;5894;42.768;23.404;2023-04-15T00:22:02;94904.19;;;7.65;100.00
11676;BME280;5894;42.768;23.404;2023-04-15T00:24:29;94898.69;;;7.75;100.00
11676;BME280;5894;42.768;23.404;2023-04-15T00:26:57;94898.75;;;7.84;100.00
11676;BME280;5894;42.768;23.404;2023-04-15T00:29:24;94893.72;;;7.96;100.00
11676;BME280;5894;42.768;23.404;2023-04-15T00:31:51;94879.81;;;7.95;100.00
11676;BME280;5894;42.768;23.404;2023-04-15T00:34:18;94884.59;;;7.93;100.00
11676;BME280;5894;42.768;23.404;2023-04-15T00:36:46;94888.06;;;7.80;100.00
11676;BME280;5894;42.768;23.404;2023-04-15T00:39:13;94888.25;;;7.84;100.00
11676;BME280;5894;42.768;23.404;2023-04-15T00:41:41;94883.81;;;7.93;100.00
11676;BME280;5894;42.768;23.404;2023-04-15T00:44:08;94875.34;;;7.96;100.00
11676;BME280;5894;42.768;23.404;2023-04-15T00:46:36;94890.50;;;7.99;100.00
11676;BME280;5894;42.768;23.404;2023-04-15T00:49:05;94907.25;;;7.89;100.00
11676;BME280;5894;42.768;23.404;2023-04-15T00:51:32;94912.59;;;7.98;100.00
11676;BME280;5894;42.768;23.404;2023-04-15T00:54:02;94905.31;;;7.95;100.00
11676;BME280;5894;42.768;23.404;2023-04-15T00:56:29;94904.72;;;7.98;100.00
11676;BME280;5894;42.768;23.404;2023-04-15T00:58:57;94910.13;;;8.01;100.00
11676;BME280;5894;42.768;23.404;2023-04-15T01:01:25;94905.34;;;8.03;100.00
11676;BME280;5894;42.768;23.404;2023-04-15T01:03:54;94908.28;;;8.02;100.00
11676;BME280;5894;42.768;23.404;2023-04-15T01:06:22;94906.31;;;8.07;100.00
11676;BME280;5894;42.768;23.404;2023-04-15T01:08:49;94914.66;;;8.09;100.00
11676;BME280;5894;42.768;23.404;2023-04-15T01:11:17;94913.66;;;7.97;100.00
11676;BME280;5894;42.768;23.404;2023-04-15T01:13:45;94912.06;;;7.87;100.00
11676;BME280;5894;42.768;23.404;2023-04-15T01:16:12;94917.66;;;7.94;100.00
11676;BME280;5894;42.768;23.404;2023-04-15T01:18:41;94924.81;;;8.02;100.00
11676;BME280;5894;42.768;23.404;2023-04-15T01:21:08;94921.41;;;8.02;100.00
11676;BME280;5894;42.768;23.404;2023-04-15T01:23:36;94916.91;;;8.02;100.00
11676;BME280;5894;42.768;23.404;2023-04-15T01:26:06;94899.34;;;7.81;100.00
11676;BME280;5894;42.768;23.404;2023-04-15T01:28:33;94910.38;;;7.91;100.00
11676;BME280;5894;42.768;23.404;2023-04-15T01:31:07;94898.50;;;7.94;100.00
11676;BME280;5894;42.768;23.404;2023-04-15T01:33:38;94905.88;;;7.92;100.00
11676;BME280;5894;42.768;23.404;2023-04-15T01:36:06;94904.88;;;8.01;100.00
11676;BME280;5894;42.768;23.404;2023-04-15T01:38:35;94829.47;;;7.40;100.00
11676;BME280;5894;42.768;23.404;2023-04-15T01:41:02;94908.47;;;7.83;100.00
11676;BME280;5894;42.768;23.404;2023-04-15T01:43:33;94915.22;;;7.53;100.00
11676;BME280;5894;42.768;23.404;2023-04-15T01:46:00;94931.72;;;7.54;100.00
11676;BME280;5894;42.768;23.404;2023-04-15T01:48:27;94931.44;;;7.55;100.00
11676;BME280;5894;42.768;23.404;2023-04-15T01:50:55;94921.22;;;7.54;100.00
11676;BME280;5894;42.768;23.404;2023-04-15T01:53:23;94928.53;;;7.57;100.00
11676;BME280;5894;42.768;23.404;2023-04-15T01:55:50;94930.94;;;7.53;100.00
11676;BME280;5894;42.768;23.404;2023-04-15T01:58:17;94934.84;;;7.56;100.00
11676;BME280;5894;42.768;23.404;2023-04-15T02:00:46;94936.38;;;7.57;100.00
11676;BME280;5894;42.768;23.404;2023-04-15T02:03:13;94946.31;;;7.46;100.00
11676;BME280;5894;42.768;23.404;2023-04-15T02:05:40;94935.06;;;7.46;100.00
11676;BME280;5894;42.768;23.404;2023-04-15T02:08:07;94900.78;;;7.28;100.00
11676;BME280;5894;42.768;23.404;2023-04-15T02:10:36;94942.41;;;7.21;100.00
11676;BME280;5894;42.768;23.404;2023-04-15T02:13:04;94942.03;;;7.00;100.00
11676;BME280;5894;42.768;23.404;2023-04-15T02:15:31;94936.28;;;7.12;100.00
11676;BME280;5894;42.768;23.404;2023-04-15T02:18:01;94936.09;;;7.09;100.00
11676;BME280;5894;42.768;23.404;2023-04-15T02:20:28;94939.91;;;6.75;100.00
11676;BME280;5894;42.768;23.404;2023-04-15T02:22:57;94931.66;;;6.82;100.00
11676;BME280;5894;42.768;23.404;2023-04-15T02:25:24;94932.03;;;6.75;100.00
11676;BME280;5894;42.768;23.404;2023-04-15T02:27:51;94928.56;;;6.80;100.00
11676;BME280;5894;42.768;23.404;2023-04-15T02:30:18;94926.91;;;6.70;100.00
11676;BME280;5894;42.768;23.404;2023-04-15T02:32:45;94907.72;;;6.61;100.00
11676;BME280;5894;42.768;23.404;2023-04-15T02:35:14;94919.53;;;6.72;100.00
11676;BME280;5894;42.768;23.404;2023-04-15T02:37:41;94924.88;;;6.81;100.00
11676;BME280;5894;42.768;23.404;2023-04-15T02:40:11;94925.94;;;6.80;100.00
11676;BME280;5894;42.768;23.404;2023-04-15T02:42:38;94862.59;;;6.37;100.00
11676;BME280;5894;42.768;23.404;2023-04-15T02:45:08;94944.94;;;6.85;100.00
11676;BME280;5894;42.768;23.404;2023-04-15T02:47:36;94940.03;;;6.84;100.00
11676;BME280;5894;42.768;23.404;2023-04-15T02:50:08;94936.13;;;6.81;100.00
11676;BME280;5894;42.768;23.404;2023-04-15T02:52:39;94934.28;;;6.82;100.00
11676;BME280;5894;42.768;23.404;2023-04-15T02:55:07;94923.13;;;6.76;100.00
11676;BME280;5894;42.768;23.404;2023-04-15T02:57:36;94931.06;;;6.98;100.00
11676;BME280;5894;42.768;23.404;2023-04-15T03:00:07;94871.91;;;6.56;100.00
11676;BME280;5894;42.768;23.404;2023-04-15T03:02:38;94931.38;;;6.83;100.00
11676;BME280;5894;42.768;23.404;2023-04-15T03:05:10;94927.78;;;6.79;100.00
11676;BME280;5894;42.768;23.404;2023-04-15T03:07:41;94930.19;;;6.76;100.00
11676;BME280;5894;42.768;23.404;2023-04-15T03:10:08;94927.50;;;6.81;100.00
11676;BME280;5894;42.768;23.404;2023-04-15T03:12:35;94934.56;;;6.80;100.00
11676;BME280;5894;42.768;23.404;2023-04-15T03:15:03;94931.75;;;6.77;100.00
11676;BME280;5894;42.768;23.404;2023-04-15T03:17:35;94929.75;;;6.74;100.00
11676;BME280;5894;42.768;23.404;2023-04-15T03:20:04;94944.97;;;6.72;100.00
11676;BME280;5894;42.768;23.404;2023-04-15T03:22:31;94942.63;;;6.70;100.00
11676;BME280;5894;42.768;23.404;2023-04-15T03:25:00;94945.63;;;6.77;100.00
11676;BME280;5894;42.768;23.404;2023-04-15T03:27:27;94948.16;;;6.69;100.00
11676;BME280;5894;42.768;23.404;2023-04-15T03:29:58;94952.13;;;6.66;100.00
11676;BME280;5894;42.768;23.404;2023-04-15T03:32:26;94947.56;;;6.58;100.00
11676;BME280;5894;42.768;23.404;2023-04-15T03:34:52;94962.03;;;6.55;100.00
11676;BME280;5894;42.768;23.404;2023-04-15T03:37:19;94969.69;;;6.52;100.00
11676;BME280;5894;42.768;23.404;2023-04-15T03:39:46;94971.63;;;6.46;100.00
11676;BME280;5894;42.768;23.404;2023-04-15T03:42:14;94978.69;;;6.46;100.00
11676;BME280;5894;42.768;23.404;2023-04-15T03:44:41;94979.41;;;6.51;100.00
11676;BME280;5894;42.768;23.404;2023-04-15T03:47:07;94982.59;;;6.48;100.00
11676;BME280;5894;42.768;23.404;2023-04-15T03:49:34;94984.72;;;6.46;100.00
11676;BME280;5894;42.768;23.404;2023-04-15T03:52:01;94987.00;;;6.34;100.00
11676;BME280;5894;42.768;23.404;2023-04-15T03:54:28;94990.88;;;6.23;100.00
11676;BME280;5894;42.768;23.404;2023-04-15T03:56:55;94996.06;;;6.09;100.00
11676;BME280;5894;42.768;23.404;2023-04-15T03:59:23;94999.53;;;6.05;100.00
11676;BME280;5894;42.768;23.404;2023-04-15T04:01:50;94998.25;;;6.02;100.00
11676;BME280;5894;42.768;23.404;2023-04-15T04:04:17;95003.50;;;6.02;100.00
11676;BME280;5894;42.768;23.404;2023-04-15T04:06:44;94997.19;;;6.03;100.00
11676;BME280;5894;42.768;23.404;2023-04-15T04:09:10;94988.09;;;6.01;100.00
11676;BME280;5894;42.768;23.404;2023-04-15T04:11:37;95002.94;;;6.05;100.00
11676;BME280;5894;42.768;23.404;2023-04-15T04:14:04;95000.53;;;6.09;100.00
11676;BME280;5894;42.768;23.404;2023-04-15T04:16:32;94998.59;;;6.14;100.00
11676;BME280;5894;42.768;23.404;2023-04-15T04:18:59;95000.94;;;6.16;100.00
11676;BME280;5894;42.768;23.404;2023-04-15T04:21:26;94998.88;;;6.13;100.00
11676;BME280;5894;42.768;23.404;2023-04-15T04:23:53;94996.06;;;6.09;100.00
11676;BME280;5894;42.768;23.404;2023-04-15T04:26:21;94957.28;;;5.79;100.00
11676;BME280;5894;42.768;23.404;2023-04-15T04:28:48;95002.66;;;6.07;100.00
11676;BME280;5894;42.768;23.404;2023-04-15T04:31:15;95007.22;;;6.01;100.00
11676;BME280;5894;42.768;23.404;2023-04-15T04:33:43;95012.06;;;6.08;100.00
11676;BME280;5894;42.768;23.404;2023-04-15T04:36:10;95017.31;;;6.08;100.00
11676;BME280;5894;42.768;23.404;2023-04-15T04:38:37;95017.72;;;6.15;100.00
11676;BME280;5894;42.768;23.404;2023-04-15T04:41:03;95017.25;;;6.26;100.00
11676;BME280;5894;42.768;23.404;2023-04-15T04:43:30;95011.38;;;6.35;100.00
11676;BME280;5894;42.768;23.404;2023-04-15T04:45:57;95014.97;;;6.39;100.00
11676;BME280;5894;42.768;23.404;2023-04-15T04:48:24;95015.38;;;6.46;100.00
11676;BME280;5894;42.768;23.404;2023-04-15T04:50:53;95017.63;;;6.52;100.00
11676;BME280;5894;42.768;23.404;2023-04-15T04:53:20;95014.34;;;6.60;100.00
11676;BME280;5894;42.768;23.404;2023-04-15T04:55:46;95018.81;;;6.60;100.00
11676;BME280;5894;42.768;23.404;2023-04-15T04:58:13;95018.34;;;6.72;100.00
11676;BME280;5894;42.768;23.404;2023-04-15T05:00:40;95028.25;;;6.75;100.00
11676;BME280;5894;42.768;23.404;2023-04-15T05:03:07;95022.41;;;6.78;100.00
11676;BME280;5894;42.768;23.404;2023-04-15T05:05:34;95028.53;;;6.87;100.00
11676;BME280;5894;42.768;23.404;2023-04-15T05:08:05;95034.84;;;6.99;100.00
11676;BME280;5894;42.768;23.404;2023-04-15T05:10:32;95030.47;;;7.09;100.00
11676;BME280;5894;42.768;23.404;2023-04-15T05:12:59;95037.09;;;7.20;100.00
11676;BME280;5894;42.768;23.404;2023-04-15T05:15:25;95037.94;;;7.29;100.00
11676;BME280;5894;42.768;23.404;2023-04-15T05:17:52;95039.00;;;7.42;100.00
11676;BME280;5894;42.768;23.404;2023-04-15T05:20:19;95043.00;;;7.53;100.00
11676;BME280;5894;42.768;23.404;2023-04-15T05:22:46;95049.88;;;7.62;100.00
11676;BME280;5894;42.768;23.404;2023-04-15T05:25:14;95051.78;;;7.70;100.00
11676;BME280;5894;42.768;23.404;2023-04-15T05:27:41;95054.81;;;7.78;100.00
11676;BME280;5894;42.768;23.404;2023-04-15T05:30:08;95060.22;;;7.81;100.00
11676;BME280;5894;42.768;23.404;2023-04-15T05:32:35;95056.81;;;7.94;100.00
11676;BME280;5894;42.768;23.404;2023-04-15T05:35:02;95070.00;;;8.03;100.00
11676;BME280;5894;42.768;23.404;2023-04-15T05:37:29;95056.34;;;8.15;100.00
11676;BME280;5894;42.768;23.404;2023-04-15T05:39:56;95052.69;;;8.38;100.00
11676;BME280;5894;42.768;23.404;2023-04-15T05:42:24;95059.66;;;8.65;100.00
11676;BME280;5894;42.768;23.404;2023-04-15T05:44:51;95056.22;;;8.87;100.00
11676;BME280;5894;42.768;23.404;2023-04-15T05:47:17;95060.47;;;9.05;100.00
11676;BME280;5894;42.768;23.404;2023-04-15T05:49:44;95052.31;;;9.15;100.00
11676;BME280;5894;42.768;23.404;2023-04-15T05:52:11;95054.25;;;9.40;100.00
11676;BME280;5894;42.768;23.404;2023-04-15T05:54:38;95057.28;;;9.65;100.00
11676;BME280;5894;42.768;23.404;2023-04-15T05:57:04;95067.53;;;9.92;100.00
11676;BME280;5894;42.768;23.404;2023-04-15T05:59:33;95067.38;;;10.06;100.00
11676;BME280;5894;42.768;23.404;2023-04-15T06:02:00;95077.63;;;10.33;100.00
11676;BME280;5894;42.768;23.404;2023-04-15T06:04:27;95080.13;;;10.47;100.00
11676;BME280;5894;42.768;23.404;2023-04-15T06:06:54;95084.59;;;10.55;100.00
11676;BME280;5894;42.768;23.404;2023-04-15T06:09:21;95065.22;;;10.51;100.00
11676;BME280;5894;42.768;23.404;2023-04-15T06:11:48;95084.25;;;10.74;100.00
11676;BME280;5894;42.768;23.404;2023-04-15T06:14:15;95089.06;;;10.72;100.00
11676;BME280;5894;42.768;23.404;2023-04-15T06:16:43;95090.31;;;10.74;100.00
11676;BME280;5894;42.768;23.404;2023-04-15T06:19:10;95097.56;;;10.94;100.00
11676;BME280;5894;42.768;23.404;2023-04-15T06:21:36;95102.19;;;11.06;100.00
11676;BME280;5894;42.768;23.404;2023-04-15T06:24:04;95106.06;;;11.09;99.05
11676;BME280;5894;42.768;23.404;2023-04-15T06:26:30;95091.75;;;11.18;99.77
11676;BME280;5894;42.768;23.404;2023-04-15T06:28:57;95103.50;;;11.38;98.28
11676;BME280;5894;42.768;23.404;2023-04-15T06:31:25;95107.78;;;11.51;98.13
11676;BME280;5894;42.768;23.404;2023-04-15T06:33:53;95107.06;;;11.71;96.78
11676;BME280;5894;42.768;23.404;2023-04-15T06:36:20;95103.19;;;11.69;96.13
11676;BME280;5894;42.768;23.404;2023-04-15T06:38:46;95103.63;;;11.80;95.38
11676;BME280;5894;42.768;23.404;2023-04-15T06:41:13;95115.97;;;11.96;95.03
11676;BME280;5894;42.768;23.404;2023-04-15T06:43:40;95113.53;;;12.12;92.24
11676;BME280;5894;42.768;23.404;2023-04-15T06:46:07;95121.56;;;12.24;90.51
11676;BME280;5894;42.768;23.404;2023-04-15T06:48:35;95112.16;;;12.35;91.84
11676;BME280;5894;42.768;23.404;2023-04-15T06:51:04;95125.84;;;12.49;91.95
11676;BME280;5894;42.768;23.404;2023-04-15T06:53:31;95121.28;;;12.59;91.29
11676;BME280;5894;42.768;23.404;2023-04-15T06:55:57;95125.06;;;12.70;90.29
11676;BME280;5894;42.768;23.404;2023-04-15T06:58:26;95123.88;;;12.79;89.91
11676;BME280;5894;42.768;23.404;2023-04-15T07:00:53;95127.56;;;12.87;89.88
11676;BME280;5894;42.768;23.404;2023-04-15T07:03:20;95128.31;;;12.87;87.91
11676;BME280;5894;42.768;23.404;2023-04-15T07:05:46;95118.88;;;12.86;88.75
11676;BME280;5894;42.768;23.404;2023-04-15T07:08:14;95117.13;;;13.03;88.75
11676;BME280;5894;42.768;23.404;2023-04-15T07:10:41;95111.84;;;13.03;90.57
11676;BME280;5894;42.768;23.404;2023-04-15T07:13:08;95105.97;;;13.18;87.97
11676;BME280;5894;42.768;23.404;2023-04-15T07:15:35;95100.91;;;13.25;85.67
11676;BME280;5894;42.768;23.404;2023-04-15T07:18:02;95096.69;;;13.24;86.24
11676;BME280;5894;42.768;23.404;2023-04-15T07:20:29;95110.72;;;13.37;83.94
11676;BME280;5894;42.768;23.404;2023-04-15T07:22:56;95113.28;;;13.45;81.14
11676;BME280;5894;42.768;23.404;2023-04-15T07:25:24;95110.31;;;13.59;80.42
11676;BME280;5894;42.768;23.404;2023-04-15T07:27:51;95106.97;;;13.62;81.66
11676;BME280;5894;42.768;23.404;2023-04-15T07:30:18;95110.53;;;13.66;78.49
11676;BME280;5894;42.768;23.404;2023-04-15T07:32:45;95109.97;;;13.60;80.03
11676;BME280;5894;42.768;23.404;2023-04-15T07:35:12;95118.69;;;13.73;80.50
11676;BME280;5894;42.768;23.404;2023-04-15T07:37:39;95112.41;;;13.66;83.12
11676;BME280;5894;42.768;23.404;2023-04-15T07:40:08;95094.75;;;13.45;83.83
11676;BME280;5894;42.768;23.404;2023-04-15T07:42:37;95117.06;;;13.69;83.68
11676;BME280;5894;42.768;23.404;2023-04-15T07:45:04;95123.66;;;13.63;79.92
11676;BME280;5894;42.768;23.404;2023-04-15T07:47:32;95125.31;;;13.55;79.59
11676;BME280;5894;42.768;23.404;2023-04-15T07:49:58;95120.03;;;13.67;80.03
11676;BME280;5894;42.768;23.404;2023-04-15T07:52:26;95125.88;;;13.85;79.93
11676;BME280;5894;42.768;23.404;2023-04-15T07:54:53;95133.59;;;14.02;79.68
11676;BME280;5894;42.768;23.404;2023-04-15T07:57:20;95136.00;;;14.19;76.98
11676;BME280;5894;42.768;23.404;2023-04-15T07:59:48;95133.75;;;14.33;78.25
11676;BME280;5894;42.768;23.404;2023-04-15T08:02:15;95141.19;;;14.52;81.10
11676;BME280;5894;42.768;23.404;2023-04-15T08:04:41;95145.28;;;14.78;78.98
11676;BME280;5894;42.768;23.404;2023-04-15T08:07:08;95150.94;;;15.04;73.78
11676;BME280;5894;42.768;23.404;2023-04-15T08:09:35;95146.44;;;15.20;73.12
11676;BME280;5894;42.768;23.404;2023-04-15T08:12:02;95149.47;;;15.34;70.78
11676;BME280;5894;42.768;23.404;2023-04-15T08:14:29;95144.25;;;15.54;70.22
11676;BME280;5894;42.768;23.404;2023-04-15T08:16:57;95144.72;;;15.56;61.58
11676;BME280;5894;42.768;23.404;2023-04-15T08:19:24;95155.72;;;15.42;63.07
11676;BME280;5894;42.768;23.404;2023-04-15T08:21:51;95145.59;;;15.48;64.23
11676;BME280;5894;42.768;23.404;2023-04-15T08:24:17;95135.41;;;15.50;62.17
11676;BME280;5894;42.768;23.404;2023-04-15T08:26:44;95120.34;;;15.54;65.21
11676;BME280;5894;42.768;23.404;2023-04-15T08:29:11;95135.00;;;15.79;66.35
11676;BME280;5894;42.768;23.404;2023-04-15T08:31:38;95131.28;;;15.99;67.69
11676;BME280;5894;42.768;23.404;2023-04-15T08:34:06;95131.19;;;16.11;69.14
11676;BME280;5894;42.768;23.404;2023-04-15T08:36:33;95134.16;;;16.26;68.26
11676;BME280;5894;42.768;23.404;2023-04-15T08:39:00;95124.88;;;16.35;64.63
11676;BME280;5894;42.768;23.404;2023-04-15T08:41:33;95124.41;;;16.49;60.85
11676;BME280;5894;42.768;23.404;2023-04-15T08:44:05;95122.31;;;16.58;61.07
11676;BME280;5894;42.768;23.404;2023-04-15T08:46:32;95113.56;;;16.58;58.42
11676;BME280;5894;42.768;23.404;2023-04-15T08:48:59;95115.78;;;16.56;55.47
11676;BME280;5894;42.768;23.404;2023-04-15T08:51:30;95120.63;;;16.50;56.77
11676;BME280;5894;42.768;23.404;2023-04-15T08:53:59;95115.63;;;16.29;60.17
11676;BME280;5894;42.768;23.404;2023-04-15T08:56:27;95117.09;;;16.27;63.11
11676;BME280;5894;42.768;23.404;2023-04-15T08:58:56;95115.44;;;16.38;56.91
11676;BME280;5894;42.768;23.404;2023-04-15T09:01:25;95109.97;;;16.50;55.91
11676;BME280;5894;42.768;23.404;2023-04-15T09:03:52;95110.19;;;16.61;53.05
11676;BME280;5894;42.768;23.404;2023-04-15T09:06:20;95073.13;;;16.33;49.74
11676;BME280;5894;42.768;23.404;2023-04-15T09:08:48;95103.97;;;16.72;51.58
11676;BME280;5894;42.768;23.404;2023-04-15T09:11:16;95098.03;;;16.79;49.31
11676;BME280;5894;42.768;23.404;2023-04-15T09:13:44;95102.38;;;16.87;48.18
11676;BME280;5894;42.768;23.404;2023-04-15T09:16:11;95098.94;;;16.86;47.20
11676;BME280;5894;42.768;23.404;2023-04-15T09:18:38;95088.84;;;16.76;47.49
11676;BME280;5894;42.768;23.404;2023-04-15T09:21:07;95088.38;;;16.71;44.60
11676;BME280;5894;42.768;23.404;2023-04-15T09:23:36;95055.47;;;16.44;45.87
11676;BME280;5894;42.768;23.404;2023-04-15T09:26:05;95078.06;;;16.69;46.10
11676;BME280;5894;42.768;23.404;2023-04-15T09:28:33;95082.13;;;16.63;47.41
11676;BME280;5894;42.768;23.404;2023-04-15T09:31:06;95077.13;;;16.62;47.87
11676;BME280;5894;42.768;23.404;2023-04-15T09:33:34;95074.56;;;16.65;47.24
11676;BME280;5894;42.768;23.404;2023-04-15T09:36:03;95039.50;;;16.44;48.13
11676;BME280;5894;42.768;23.404;2023-04-15T09:38:30;95085.75;;;16.74;48.05
11676;BME280;5894;42.768;23.404;2023-04-15T09:40:58;95079.25;;;16.72;47.88
11676;BME280;5894;42.768;23.404;2023-04-15T09:43:38;95082.31;;;16.74;47.73
11676;BME280;5894;42.768;23.404;2023-04-15T09:46:05;95082.13;;;16.63;45.99
11676;BME280;5894;42.768;23.404;2023-04-15T09:48:32;95081.19;;;16.56;46.40
11676;BME280;5894;42.768;23.404;2023-04-15T09:50:59;95048.34;;;16.48;47.82
11676;BME280;5894;42.768;23.404;2023-04-15T09:53:26;95071.63;;;16.70;47.51
11676;BME280;5894;42.768;23.404;2023-04-15T09:55:55;95067.97;;;16.78;48.01
11676;BME280;5894;42.768;23.404;2023-04-15T09:58:23;95081.13;;;16.91;47.33
11676;BME280;5894;42.768;23.404;2023-04-15T10:00:53;95083.16;;;16.97;46.51
11676;BME280;5894;42.768;23.404;2023-04-15T10:03:24;95083.28;;;17.04;45.18
11676;BME280;5894;42.768;23.404;2023-04-15T10:05:52;95080.09;;;17.18;44.16
11676;BME280;5894;42.768;23.404;2023-04-15T10:08:21;95082.56;;;17.07;43.16
11676;BME280;5894;42.768;23.404;2023-04-15T10:10:48;95078.84;;;17.12;44.70
11676;BME280;5894;42.768;23.404;2023-04-15T10:13:20;95074.47;;;17.23;44.21
11676;BME280;5894;42.768;23.404;2023-04-15T10:15:51;95081.72;;;17.22;44.19
11676;BME280;5894;42.768;23.404;2023-04-15T10:18:24;95071.03;;;17.22;44.00
11676;BME280;5894;42.768;23.404;2023-04-15T10:20:52;95071.94;;;17.30;44.45
11676;BME280;5894;42.768;23.404;2023-04-15T10:23:19;95069.88;;;17.43;42.36
11676;BME280;5894;42.768;23.404;2023-04-15T10:25:47;95058.94;;;17.51;40.52
11676;BME280;5894;42.768;23.404;2023-04-15T10:28:15;95052.91;;;17.54;40.66
11676;BME280;5894;42.768;23.404;2023-04-15T10:30:42;95056.50;;;17.66;38.50
11676;BME280;5894;42.768;23.404;2023-04-15T10:33:09;95057.28;;;17.66;38.36
11676;BME280;5894;42.768;23.404;2023-04-15T10:35:38;95047.75;;;17.65;37.72
11676;BME280;5894;42.768;23.404;2023-04-15T10:38:33;95042.69;;;17.60;39.19
11676;BME280;5894;42.768;23.404;2023-04-15T10:41:17;95043.47;;;17.60;40.33
11676;BME280;5894;42.768;23.404;2023-04-15T10:43:48;95036.44;;;17.49;37.93
11676;BME280;5894;42.768;23.404;2023-04-15T10:46:18;95028.28;;;17.38;37.33
11676;BME280;5894;42.768;23.404;2023-04-15T10:48:49;95032.53;;;17.43;40.40
11676;BME280;5894;42.768;23.404;2023-04-15T10:51:28;95034.97;;;17.51;39.77
11676;BME280;5894;42.768;23.404;2023-04-15T10:53:56;95039.97;;;17.56;38.65
11676;BME280;5894;42.768;23.404;2023-04-15T10:56:24;95028.16;;;17.54;39.72
11676;BME280;5894;42.768;23.404;2023-04-15T10:58:51;95034.47;;;17.69;40.04
11676;BME280;5894;42.768;23.404;2023-04-15T11:01:19;95041.75;;;17.72;38.18
11676;BME280;5894;42.768;23.404;2023-04-15T11:03:47;95040.16;;;17.67;37.07
11676;BME280;5894;42.768;23.404;2023-04-15T11:06:15;95042.88;;;17.71;37.73
11676;BME280;5894;42.768;23.404;2023-04-15T11:08:57;95027.13;;;17.62;38.24
11676;BME280;5894;42.768;23.404;2023-04-15T11:12:05;95043.03;;;17.81;36.50
11676;BME280;5894;42.768;23.404;2023-04-15T11:14:33;95041.16;;;17.82;38.72
11676;BME280;5894;42.768;23.404;2023-04-15T11:17:00;95040.94;;;17.94;38.88
11676;BME280;5894;42.768;23.404;2023-04-15T11:19:35;95040.22;;;17.97;38.22
11676;BME280;5894;42.768;23.404;2023-04-15T11:22:07;95046.38;;;18.01;37.99
11676;BME280;5894;42.768;23.404;2023-04-15T11:24:35;94966.41;;;17.52;37.61
11676;BME280;5894;42.768;23.404;2023-04-15T11:27:02;95037.59;;;18.01;36.74
11676;BME280;5894;42.768;23.404;2023-04-15T11:29:29;95032.19;;;17.93;35.05
11676;BME280;5894;42.768;23.404;2023-04-15T11:32:08;95036.53;;;17.79;34.26
11676;BME280;5894;42.768;23.404;2023-04-15T11:34:35;95030.31;;;17.71;34.88
11676;BME280;5894;42.768;23.404;2023-04-15T11:37:03;95041.84;;;17.75;36.11
11676;BME280;5894;42.768;23.404;2023-04-15T11:39:30;95023.16;;;17.75;35.46
11676;BME280;5894;42.768;23.404;2023-04-15T11:41:59;95026.47;;;17.69;34.67
11676;BME280;5894;42.768;23.404;2023-04-15T11:44:25;95023.59;;;17.54;35.93
11676;BME280;5894;42.768;23.404;2023-04-15T11:46:53;95026.13;;;17.47;35.89
11676;BME280;5894;42.768;23.404;2023-04-15T11:49:27;95024.22;;;17.48;35.81
11676;BME280;5894;42.768;23.404;2023-04-15T11:51:55;95020.00;;;17.43;35.82
11676;BME280;5894;42.768;23.404;2023-04-15T11:54:21;95023.03;;;17.45;36.16
11676;BME280;5894;42.768;23.404;2023-04-15T11:56:51;95011.75;;;17.52;36.78
11676;BME280;5894;42.768;23.404;2023-04-15T11:59:20;95012.72;;;17.67;38.17
11676;BME280;5894;42.768;23.404;2023-04-15T12:01:47;95026.78;;;17.64;37.07
11676;BME280;5894;42.768;23.404;2023-04-15T12:04:16;95008.59;;;17.69;36.99
11676;BME280;5894;42.768;23.404;2023-04-15T12:06:44;95008.63;;;17.73;37.29
11676;BME280;5894;42.768;23.404;2023-04-15T12:09:12;94997.03;;;17.61;36.28
11676;BME280;5894;42.768;23.404;2023-04-15T12:11:42;94998.59;;;17.63;35.95
11676;BME280;5894;42.768;23.404;2023-04-15T12:14:11;95010.03;;;17.63;35.17
11676;BME280;5894;42.768;23.404;2023-04-15T12:16:41;95005.38;;;17.60;36.28
11676;BME280;5894;42.768;23.404;2023-04-15T12:19:11;95004.34;;;17.65;34.76
11676;BME280;5894;42.768;23.404;2023-04-15T12:21:39;95004.78;;;17.70;33.66
11676;BME280;5894;42.768;23.404;2023-04-15T12:24:08;94965.22;;;17.49;33.84
11676;BME280;5894;42.768;23.404;2023-04-15T12:26:37;95000.72;;;17.80;34.39
11676;BME280;5894;42.768;23.404;2023-04-15T12:29:05;94998.97;;;17.91;34.65
11676;BME280;5894;42.768;23.404;2023-04-15T12:31:33;94935.38;;;17.63;36.14
11676;BME280;5894;42.768;23.404;2023-04-15T12:34:05;95000.94;;;18.24;35.45
11676;BME280;5894;42.768;23.404;2023-04-15T12:36:33;94996.97;;;18.44;36.92
11676;BME280;5894;42.768;23.404;2023-04-15T12:39:02;94997.44;;;18.53;34.13
11676;BME280;5894;42.768;23.404;2023-04-15T12:41:29;95002.53;;;18.62;36.81
11676;BME280;5894;42.768;23.404;2023-04-15T12:43:56;95006.88;;;18.77;35.97
11676;BME280;5894;42.768;23.404;2023-04-15T12:46:23;95005.47;;;18.90;35.14
11676;BME280;5894;42.768;23.404;2023-04-15T12:48:50;94987.47;;;18.84;35.70
11676;BME280;5894;42.768;23.404;2023-04-15T12:51:19;95002.63;;;19.10;35.07
11676;BME280;5894;42.768;23.404;2023-04-15T12:53:48;95004.94;;;19.15;34.52
11676;BME280;5894;42.768;23.404;2023-04-15T12:56:16;95004.91;;;19.11;34.68
11676;BME280;5894;42.768;23.404;2023-04-15T12:58:43;95010.69;;;19.17;34.23
11676;BME280;5894;42.768;23.404;2023-04-15T13:01:09;95000.97;;;18.98;34.57
11676;BME280;5894;42.768;23.404;2023-04-15T13:03:36;95010.38;;;18.85;33.92
11676;BME280;5894;42.768;23.404;2023-04-15T13:06:03;95018.28;;;18.74;34.19